METAR Data
IDs: Format: Raw Decoded Include TAF

Data at: 0142 UTC 01 Mar 2021

KMNN 010122Z AUTO 24010KT 10SM SCT021 SCT030 OVC070 14/12 A2975 RMK AO2 T01390117 $